createdAt,value
2023-04-10T00:01:39.466Z,5.43
2023-04-10T00:04:10.877Z,5.50
2023-04-10T00:06:42.887Z,5.40
2023-04-10T00:09:14.577Z,5.50
2023-04-10T00:11:43.878Z,6.05
2023-04-10T00:14:15.700Z,5.68
2023-04-10T00:16:45.215Z,6.18
2023-04-10T00:19:14.391Z,5.80
2023-04-10T00:21:43.992Z,5.97
2023-04-10T00:24:14.730Z,6.47
2023-04-10T00:26:43.798Z,5.95
2023-04-10T00:29:13.006Z,5.68
2023-04-10T00:31:42.257Z,5.68
2023-04-10T00:34:12.037Z,5.53
2023-04-10T00:36:41.333Z,6.05
2023-04-10T00:39:15.554Z,5.55
2023-04-10T00:41:48.658Z,5.93
2023-04-10T00:44:17.846Z,5.85
2023-04-10T00:46:46.973Z,6.18
2023-04-10T00:49:16.017Z,5.80
2023-04-10T00:51:45.834Z,6.45
2023-04-10T00:54:16.653Z,5.20
2023-04-10T00:56:47.496Z,6.38
2023-04-10T00:59:17.131Z,6.00
2023-04-10T01:01:46.578Z,5.97
2023-04-10T01:04:17.001Z,6.50
2023-04-10T01:06:55.716Z,6.68
2023-04-10T01:09:40.230Z,6.60
2023-04-10T01:15:05.922Z,6.28
2023-04-10T01:17:42.264Z,6.50
2023-04-10T01:20:15.848Z,6.95
2023-04-10T01:23:01.472Z,6.60
2023-04-10T01:25:45.249Z,7.13
2023-04-10T01:28:34.811Z,7.28
2023-04-10T01:31:07.809Z,7.82
2023-04-10T01:33:42.137Z,7.60
2023-04-10T01:36:13.402Z,7.25
2023-04-10T01:38:44.944Z,7.72
2023-04-10T01:41:15.185Z,7.15
2023-04-10T01:43:44.672Z,7.45
2023-04-10T01:46:15.880Z,7.28
2023-04-10T01:48:46.436Z,7.80
2023-04-10T01:51:16.864Z,6.85
2023-04-10T01:53:49.002Z,7.93
2023-04-10T01:56:24.250Z,7.20
2023-04-10T01:58:53.647Z,7.68
2023-04-10T02:01:29.814Z,7.20
2023-04-10T02:04:00.456Z,7.13
2023-04-10T02:06:41.118Z,6.97
2023-04-10T02:09:22.091Z,7.63
2023-04-10T02:11:57.117Z,6.53
2023-04-10T02:14:29.744Z,6.78
2023-04-10T02:17:02.723Z,6.43
2023-04-10T02:19:33.361Z,7.50
2023-04-10T02:22:03.050Z,6.90
2023-04-10T02:24:33.993Z,6.32
2023-04-10T02:27:06.355Z,7.05
2023-04-10T02:29:49.089Z,7.18
2023-04-10T02:32:19.752Z,6.43
2023-04-10T02:34:48.787Z,8.40
2023-04-10T02:37:17.985Z,7.65
2023-04-10T02:39:47.141Z,6.20
2023-04-10T02:42:16.856Z,7.93
2023-04-10T02:44:46.475Z,7.03
2023-04-10T02:47:16.233Z,7.70
2023-04-10T02:49:49.516Z,7.22
2023-04-10T02:52:19.858Z,7.35
2023-04-10T02:54:49.081Z,8.88
2023-04-10T02:57:21.575Z,7.40
2023-04-10T02:59:52.273Z,7.03
2023-04-10T03:02:23.108Z,7.57
2023-04-10T03:04:56.725Z,7.95
2023-04-10T03:07:26.120Z,7.63
2023-04-10T03:09:56.293Z,6.65
2023-04-10T03:12:25.546Z,7.40
2023-04-10T03:14:54.655Z,7.10
2023-04-10T03:17:23.763Z,6.88
2023-04-10T03:19:54.871Z,7.32
2023-04-10T03:22:24.644Z,7.35
2023-04-10T03:24:54.186Z,8.60
2023-04-10T03:27:26.458Z,7.63
2023-04-10T03:29:55.668Z,7.65
2023-04-10T03:32:24.796Z,7.55
2023-04-10T03:34:55.993Z,7.18
2023-04-10T03:37:25.801Z,6.82
2023-04-10T03:39:57.660Z,8.00
2023-04-10T03:42:27.154Z,7.65
2023-04-10T03:44:57.612Z,6.90
2023-04-10T03:47:27.271Z,7.85
2023-04-10T03:49:57.855Z,7.60
2023-04-10T03:52:28.783Z,7.63
2023-04-10T03:55:01.481Z,7.82
2023-04-10T03:57:31.052Z,7.40
2023-04-10T04:00:05.948Z,7.70
2023-04-10T04:02:51.037Z,6.60
2023-04-10T04:05:36.977Z,7.55
2023-04-10T04:08:41.822Z,7.03
2023-04-10T04:11:34.159Z,7.80
2023-04-10T04:14:07.213Z,7.10
2023-04-10T04:17:15.826Z,7.65
2023-04-10T04:20:16.045Z,7.88
2023-04-10T04:23:19.462Z,7.63
2023-04-10T04:26:09.704Z,7.50
2023-04-10T04:28:58.430Z,8.02
2023-04-10T04:32:03.482Z,8.02
2023-04-10T04:34:54.756Z,7.70
2023-04-10T04:37:33.689Z,8.00
2023-04-10T04:40:22.750Z,7.78
2023-04-10T04:43:33.117Z,8.20
2023-04-10T04:46:09.447Z,8.52
2023-04-10T04:48:57.117Z,8.63
2023-04-10T04:51:51.793Z,8.88
2023-04-10T04:54:50.253Z,9.38
2023-04-10T04:57:48.537Z,7.93
2023-04-10T05:00:34.265Z,7.45
2023-04-10T05:03:29.610Z,7.40
2023-04-10T05:06:18.897Z,8.18
2023-04-10T05:09:09.424Z,8.18
2023-04-10T05:12:04.049Z,8.35
2023-04-10T05:14:58.996Z,8.02
2023-04-10T05:17:54.849Z,7.78
2023-04-10T05:20:50.812Z,8.68
2023-04-10T05:23:39.769Z,8.70
2023-04-10T05:26:25.896Z,7.82
2023-04-10T05:29:06.645Z,6.75
2023-04-10T05:31:56.081Z,7.90
2023-04-10T05:34:48.280Z,7.32
2023-04-10T05:37:34.689Z,6.95
2023-04-10T05:40:36.381Z,8.48
2023-04-10T05:43:24.366Z,7.18
2023-04-10T05:46:01.774Z,6.95
2023-04-10T05:48:53.329Z,7.93
2023-04-10T05:51:39.603Z,7.57
2023-04-10T05:54:21.235Z,7.00
2023-04-10T05:57:12.331Z,6.80
2023-04-10T06:00:02.568Z,6.75
2023-04-10T06:02:46.458Z,5.97
2023-04-10T06:05:26.080Z,7.10
2023-04-10T06:08:01.503Z,6.97
2023-04-10T06:10:31.796Z,7.32
2023-04-10T06:13:01.950Z,6.40
2023-04-10T06:15:33.216Z,6.40
2023-04-10T06:18:02.536Z,6.43
2023-04-10T06:20:33.698Z,7.07
2023-04-10T06:23:04.001Z,6.38
2023-04-10T06:25:33.302Z,7.00
2023-04-10T06:28:02.846Z,6.82
2023-04-10T06:30:34.710Z,6.47
2023-04-10T06:33:04.858Z,6.32
2023-04-10T06:35:38.802Z,7.13
2023-04-10T06:38:09.053Z,6.85
2023-04-10T06:40:39.403Z,6.80
2023-04-10T06:43:09.013Z,7.03
2023-04-10T06:45:43.270Z,6.13
2023-04-10T06:48:13.404Z,7.00
2023-04-10T06:50:46.950Z,7.05
2023-04-10T06:53:18.766Z,7.07
2023-04-10T06:55:48.317Z,7.50
2023-04-10T06:58:17.785Z,8.00
2023-04-10T07:00:47.369Z,8.68
2023-04-10T07:03:16.660Z,7.07
2023-04-10T08:15:04.853Z,5.97
2023-04-10T08:17:37.961Z,5.93
2023-04-10T08:20:08.917Z,6.47
2023-04-10T08:22:42.057Z,6.60
2023-04-10T08:25:15.498Z,6.18
2023-04-10T08:27:45.269Z,6.43
2023-04-10T08:30:14.923Z,5.90
2023-04-10T08:32:44.547Z,5.63
2023-04-10T08:35:14.191Z,6.30
2023-04-10T08:37:49.632Z,5.00
2023-04-10T08:40:24.449Z,4.63
2023-04-10T08:42:54.265Z,4.57
2023-04-10T08:45:24.161Z,4.93
2023-04-10T08:47:56.645Z,4.30
2023-04-10T08:50:27.132Z,3.78
2023-04-10T08:52:57.893Z,3.92
2023-04-10T08:55:28.642Z,3.58
2023-04-10T08:58:01.530Z,3.65
2023-04-10T09:00:34.633Z,3.80
2023-04-10T09:03:05.430Z,3.80
2023-04-10T09:05:36.941Z,3.60
2023-04-10T09:08:06.230Z,3.65
2023-04-10T09:10:37.112Z,3.10
2023-04-10T09:13:06.308Z,3.83
2023-04-10T09:16:00.371Z,3.50
2023-04-10T09:21:15.378Z,3.40
2023-04-10T09:23:47.076Z,3.85
2023-04-10T09:26:28.584Z,3.50
2023-04-10T09:29:00.219Z,3.67
2023-04-10T09:31:34.297Z,3.63
2023-04-10T09:34:13.548Z,3.90
2023-04-10T09:36:43.683Z,3.85
2023-04-10T09:39:13.548Z,4.15
2023-04-10T09:41:52.512Z,3.47
2023-04-10T09:44:31.307Z,4.10
2023-04-10T09:47:01.255Z,4.55
2023-04-10T09:49:45.755Z,5.00
2023-04-10T09:52:20.591Z,4.93
2023-04-10T09:54:50.006Z,4.05
2023-04-10T09:57:24.060Z,3.88
2023-04-10T09:59:58.225Z,4.40
2023-04-10T10:02:32.714Z,4.75
2023-04-10T10:05:03.040Z,4.57
2023-04-10T10:07:33.515Z,4.07
2023-04-10T10:10:04.682Z,4.28
2023-04-10T10:12:41.835Z,3.58
2023-04-10T10:15:17.995Z,3.70
2023-04-10T10:17:55.572Z,4.38
2023-04-10T10:20:26.243Z,4.05
2023-04-10T10:22:57.287Z,3.53
2023-04-10T10:25:27.914Z,3.67
2023-04-10T10:28:04.119Z,3.70
2023-04-10T10:30:41.928Z,3.45
2023-04-10T10:33:14.330Z,3.40
2023-04-10T10:35:44.263Z,4.10
2023-04-10T10:38:14.118Z,3.55
2023-04-10T10:40:50.624Z,3.05
2023-04-10T10:43:34.308Z,4.25
2023-04-10T10:46:05.179Z,4.32
2023-04-10T10:48:34.980Z,3.47
2023-04-10T10:51:04.529Z,3.70
2023-04-10T10:53:40.372Z,4.03
2023-04-10T10:56:46.201Z,3.53
2023-04-10T10:59:17.553Z,2.78
2023-04-10T11:02:16.342Z,3.03
2023-04-10T11:04:46.402Z,2.78
2023-04-10T11:07:16.337Z,2.28
2023-04-10T11:09:52.970Z,2.30
2023-04-10T11:12:24.196Z,2.50
2023-04-10T11:15:02.206Z,2.40
2023-04-10T11:17:52.119Z,2.17
2023-04-10T11:20:27.317Z,2.47
2023-04-10T11:23:12.976Z,2.28
2023-04-10T11:25:50.401Z,2.20
2023-04-10T11:28:39.744Z,2.00
2023-04-10T11:31:19.999Z,2.08
2023-04-10T11:33:52.186Z,2.08
2023-04-10T11:36:27.349Z,2.22
2023-04-10T11:38:58.149Z,2.10
2023-04-10T11:41:32.225Z,1.92
2023-04-10T11:44:03.586Z,2.00
2023-04-10T11:46:39.332Z,1.77
2023-04-10T11:51:40.903Z,1.70
2023-04-10T11:54:11.332Z,1.83
2023-04-10T11:56:41.630Z,2.13
2023-04-10T11:59:14.478Z,2.25
2023-04-10T12:01:45.483Z,2.45
2023-04-10T12:04:23.501Z,2.40
2023-04-10T12:06:55.306Z,2.30
2023-04-10T12:09:25.154Z,2.42
2023-04-10T12:11:59.801Z,2.90
2023-04-10T12:14:33.509Z,3.03
2023-04-10T12:17:43.356Z,2.30
2023-04-10T12:20:25.018Z,3.25
2023-04-10T12:23:05.379Z,2.78
2023-04-10T12:25:39.428Z,2.85
2023-04-10T12:28:09.652Z,3.30
2023-04-10T12:30:40.414Z,3.55
2023-04-10T12:33:12.662Z,3.53
2023-04-10T12:35:44.014Z,3.20
2023-04-10T12:38:22.914Z,2.40
2023-04-10T12:41:04.980Z,2.67
2023-04-10T12:43:35.620Z,2.83
2023-04-10T12:46:18.579Z,3.13
2023-04-10T12:51:28.102Z,3.30
2023-04-10T12:53:58.162Z,3.53
2023-04-10T12:56:36.450Z,3.63
2023-04-10T12:59:10.785Z,3.90
2023-04-10T13:01:42.553Z,4.03
2023-04-10T13:04:14.283Z,4.22
2023-04-10T13:06:45.360Z,4.80
2023-04-10T13:09:15.859Z,5.07
2023-04-10T13:11:46.083Z,4.60
2023-04-10T13:14:17.091Z,5.32
2023-04-10T13:16:47.141Z,5.00
2023-04-10T13:19:17.866Z,5.00
2023-04-10T13:21:50.884Z,4.63
2023-04-10T13:24:22.752Z,5.20
2023-04-10T13:26:52.459Z,5.53
2023-04-10T13:29:26.815Z,4.70
2023-04-10T13:31:57.906Z,4.38
2023-04-10T13:34:31.409Z,4.38
2023-04-10T13:37:04.052Z,4.60
2023-04-10T13:39:35.911Z,4.18
2023-04-10T13:42:05.410Z,4.22
2023-04-10T13:44:36.309Z,4.35
2023-04-10T13:47:08.901Z,3.85
2023-04-10T13:49:41.825Z,3.78
2023-04-10T13:52:11.452Z,4.40
2023-04-10T13:55:25.511Z,3.67
2023-04-10T13:57:56.132Z,4.93
2023-04-10T14:00:25.377Z,3.83
2023-04-10T14:06:15.540Z,4.38
2023-04-10T14:08:46.313Z,4.05
2023-04-10T14:11:19.417Z,3.95
2023-04-10T14:13:52.764Z,4.10
2023-04-10T14:16:25.232Z,3.65
2023-04-10T14:18:56.437Z,3.95
2023-04-10T14:21:36.794Z,3.92
2023-04-10T14:24:10.008Z,3.72
2023-04-10T14:26:40.786Z,3.70
2023-04-10T14:29:14.755Z,3.53
2023-04-10T14:31:57.627Z,3.47
2023-04-10T14:34:32.082Z,3.50
2023-04-10T14:37:02.881Z,3.33
2023-04-10T14:39:41.464Z,3.70
2023-04-10T14:42:13.051Z,3.60
2023-04-10T14:44:43.942Z,3.00
2023-04-10T14:47:15.968Z,3.60
2023-04-10T14:49:48.201Z,3.00
2023-04-10T14:54:49.413Z,3.53
2023-04-10T14:57:21.566Z,3.30
2023-04-10T15:02:21.911Z,4.20
2023-04-10T15:04:52.886Z,3.13
2023-04-10T15:07:28.533Z,3.70
2023-04-10T15:10:01.546Z,4.15
2023-04-10T15:12:33.692Z,3.80
2023-04-10T15:15:16.173Z,4.68
2023-04-10T15:17:46.688Z,4.60
2023-04-10T15:20:21.672Z,3.72
2023-04-10T15:22:55.325Z,4.32
2023-04-10T15:25:26.989Z,6.70
2023-04-10T15:27:57.341Z,7.10
2023-04-10T15:30:28.461Z,7.25
2023-04-10T15:32:58.439Z,7.57
2023-04-10T15:35:30.525Z,7.97
2023-04-10T15:38:06.918Z,6.85
2023-04-10T15:40:39.656Z,6.93
2023-04-10T15:43:16.748Z,7.00
2023-04-10T15:45:53.056Z,7.25
2023-04-10T15:48:26.759Z,6.60
2023-04-10T15:51:00.513Z,6.72
2023-04-10T15:53:31.981Z,6.72
2023-04-10T15:56:06.363Z,6.15
2023-04-10T15:58:40.874Z,5.50
2023-04-10T16:01:19.429Z,4.72
2023-04-10T16:03:59.190Z,5.13
2023-04-10T16:06:36.739Z,5.32
2023-04-10T16:09:18.656Z,5.35
2023-04-10T16:11:57.976Z,5.78
2023-04-10T16:17:02.092Z,4.65
2023-04-10T16:19:32.614Z,4.72
2023-04-10T16:22:02.357Z,5.30
2023-04-10T16:24:35.890Z,4.70
2023-04-10T16:27:05.322Z,4.38
2023-04-10T16:29:34.593Z,4.70
2023-04-10T16:32:03.878Z,4.70
2023-04-10T16:34:33.331Z,5.40
2023-04-10T16:37:02.928Z,4.50
2023-04-10T16:39:32.014Z,5.30
2023-04-10T16:42:03.595Z,4.57
2023-04-10T16:44:33.796Z,5.13
2023-04-10T16:47:02.881Z,5.15
2023-04-10T16:49:32.204Z,5.00
2023-04-10T16:52:01.918Z,5.72
2023-04-10T16:54:31.232Z,6.03
2023-04-10T16:57:00.415Z,5.95
2023-04-10T16:59:30.834Z,6.65
2023-04-10T17:02:03.778Z,5.22
2023-04-10T17:04:32.963Z,5.88
2023-04-10T17:07:02.376Z,5.90
2023-04-10T17:09:32.097Z,5.57
2023-04-10T17:12:01.231Z,5.60
2023-04-10T17:14:33.507Z,5.88
2023-04-10T17:17:02.744Z,6.25
2023-04-10T17:19:33.048Z,5.72
2023-04-10T17:22:02.500Z,6.03
2023-04-10T17:24:31.887Z,5.60
2023-04-10T17:27:02.362Z,5.88
2023-04-10T17:29:37.354Z,5.70
2023-04-10T17:32:07.281Z,5.75
2023-04-10T17:34:38.688Z,6.00
2023-04-10T17:37:08.386Z,5.38
2023-04-10T17:39:38.570Z,5.07
2023-04-10T17:42:08.782Z,6.32
2023-04-10T17:44:39.053Z,5.32
2023-04-10T17:47:08.242Z,6.32
2023-04-10T17:49:39.736Z,6.13
2023-04-10T17:52:09.030Z,5.75
2023-04-10T17:54:45.426Z,5.70
2023-04-10T17:57:17.227Z,5.50
2023-04-10T17:59:52.376Z,5.90
2023-04-10T18:09:02.820Z,5.70
2023-04-10T18:11:33.272Z,6.00
2023-04-10T18:14:02.491Z,5.85
2023-04-10T18:16:41.876Z,6.15
2023-04-10T18:19:25.517Z,6.22
2023-04-10T18:22:57.837Z,5.47
2023-04-10T18:25:46.667Z,5.93
2023-04-10T18:29:27.858Z,5.95
2023-04-10T18:32:47.728Z,6.10
2023-04-10T18:36:07.895Z,6.10
2023-04-10T18:38:47.848Z,21.08
2023-04-10T18:41:17.117Z,10.32
2023-04-10T18:43:51.256Z,6.05
2023-04-10T18:47:03.913Z,6.15
2023-04-10T18:49:51.885Z,5.57
2023-04-10T18:52:24.759Z,6.70
2023-04-10T18:55:08.443Z,6.35
2023-04-10T18:57:38.272Z,6.60
2023-04-10T19:00:09.900Z,6.88
2023-04-10T19:02:39.406Z,7.43
2023-04-10T19:05:14.296Z,6.75
2023-04-10T19:07:56.667Z,7.00
2023-04-10T19:10:33.897Z,6.95
2023-04-10T19:13:03.932Z,7.63
2023-04-10T19:15:33.183Z,7.57
2023-04-10T19:18:03.359Z,10.20
2023-04-10T19:20:50.006Z,8.07
2023-04-10T19:23:21.305Z,7.50
2023-04-10T19:25:53.816Z,7.20
2023-04-10T19:28:26.578Z,7.30
2023-04-10T19:30:56.041Z,8.67
2023-04-10T19:33:25.665Z,7.20
2023-04-10T19:36:00.943Z,7.22
2023-04-10T19:38:30.763Z,7.30
2023-04-10T19:41:00.354Z,7.43
2023-04-10T19:43:30.297Z,7.95
2023-04-10T19:46:07.407Z,8.30
2023-04-10T19:48:44.826Z,7.47
2023-04-10T19:51:16.388Z,8.68
2023-04-10T19:53:48.117Z,7.88
2023-04-10T19:56:18.274Z,7.65
2023-04-10T19:58:48.129Z,7.90
2023-04-10T20:01:18.341Z,8.32
2023-04-10T20:03:47.740Z,8.43
2023-04-10T20:06:20.523Z,8.05
2023-04-10T20:08:49.729Z,7.93
2023-04-10T20:11:20.783Z,8.23
2023-04-10T20:13:49.969Z,8.68
2023-04-10T20:16:19.405Z,9.07
2023-04-10T20:18:48.938Z,8.20
2023-04-10T20:21:20.335Z,7.97
2023-04-10T20:23:51.753Z,7.75
2023-04-10T20:26:21.701Z,8.43
2023-04-10T20:28:55.038Z,8.60
2023-04-10T20:31:24.657Z,8.50
2023-04-10T20:33:54.766Z,8.40
2023-04-10T20:36:26.514Z,8.77
2023-04-10T20:38:56.351Z,9.52
2023-04-10T20:41:26.413Z,8.77
2023-04-10T20:43:57.516Z,8.77
2023-04-10T20:46:27.575Z,8.80
2023-04-10T20:48:59.311Z,8.80
2023-04-10T20:51:30.287Z,8.90
2023-04-10T20:53:59.590Z,8.82
2023-04-10T20:56:36.705Z,8.52
2023-04-10T20:59:13.179Z,9.65
2023-04-10T21:01:42.839Z,8.63
2023-04-10T21:04:11.996Z,8.48
2023-04-10T21:06:45.626Z,9.77
2023-04-10T21:11:43.959Z,10.07
2023-04-10T21:14:17.614Z,9.20
2023-04-10T21:16:49.726Z,9.02
2023-04-10T21:19:18.889Z,9.65
2023-04-10T21:21:49.343Z,9.48
2023-04-10T21:24:19.002Z,9.88
2023-04-10T21:26:48.304Z,8.52
2023-04-10T21:29:17.612Z,8.38
2023-04-10T21:31:47.908Z,9.52
2023-04-10T21:34:18.636Z,8.75
2023-04-10T21:36:49.519Z,9.32
2023-04-10T21:39:18.717Z,9.77
2023-04-10T21:41:47.782Z,9.38
2023-04-10T21:44:17.241Z,9.02
2023-04-10T21:46:46.626Z,10.45
2023-04-10T21:49:15.930Z,8.82
2023-04-10T21:51:45.168Z,9.68
2023-04-10T21:54:15.540Z,8.90
2023-04-10T21:56:44.828Z,8.43
2023-04-10T21:59:13.952Z,9.30
2023-04-10T22:01:46.009Z,9.88
2023-04-10T22:04:15.766Z,9.13
2023-04-10T22:06:45.028Z,9.05
2023-04-10T22:09:15.916Z,9.40
2023-04-10T22:11:45.262Z,9.48
2023-04-10T22:14:17.927Z,9.55
2023-04-10T22:16:47.987Z,10.18
2023-04-10T22:19:17.374Z,8.48
2023-04-10T22:21:46.716Z,8.88
2023-04-10T22:24:17.362Z,8.52
2023-04-10T22:26:47.085Z,9.48
2023-04-10T22:29:16.410Z,9.13
2023-04-10T22:31:46.524Z,8.32
2023-04-10T22:34:16.268Z,8.30
2023-04-10T22:36:45.462Z,8.70
2023-04-10T22:39:15.170Z,8.88
2023-04-10T22:41:45.926Z,9.35
2023-04-10T22:44:15.069Z,8.65
2023-04-10T22:46:44.379Z,9.10
2023-04-10T22:49:17.122Z,9.57
2023-04-10T22:51:56.934Z,8.85
2023-04-10T22:54:26.485Z,8.52
2023-04-10T22:56:58.118Z,8.52
2023-04-10T22:59:33.030Z,8.75
2023-04-10T23:02:04.503Z,8.27
2023-04-10T23:04:33.746Z,8.40
2023-04-10T23:07:02.896Z,8.65
2023-04-10T23:09:31.982Z,7.53
2023-04-10T23:12:02.554Z,8.35
2023-04-10T23:14:31.753Z,7.70
2023-04-10T23:17:00.844Z,8.65
2023-04-10T23:19:34.852Z,8.10
2023-04-10T23:22:07.291Z,8.13
2023-04-10T23:24:36.736Z,8.50
2023-04-10T23:27:08.130Z,8.07
2023-04-10T23:29:37.179Z,8.27
2023-04-10T23:32:08.618Z,9.38
2023-04-10T23:34:38.411Z,8.70
2023-04-10T23:37:07.769Z,8.05
2023-04-10T23:39:37.186Z,7.93
2023-04-10T23:42:08.272Z,8.05
2023-04-10T23:44:37.340Z,7.82
2023-04-10T23:47:07.311Z,8.73
2023-04-10T23:49:36.588Z,8.52
2023-04-10T23:52:06.121Z,8.30
2023-04-10T23:54:35.584Z,7.72
2023-04-10T23:57:05.360Z,8.43
2023-04-10T23:59:36.028Z,7.68
